sensor_id;sensor_type;location;lat;lon;timestamp;P1;durP1;ratioP1;P2;durP2;ratioP2
37535;SDS011;23379;51.554;6.736;2024-01-27T00:00:53;10.60;;;3.67;;
37535;SDS011;23379;51.554;6.736;2024-01-27T00:03:18;13.98;;;3.65;;
37535;SDS011;23379;51.554;6.736;2024-01-27T00:05:44;15.48;;;3.75;;
37535;SDS011;23379;51.554;6.736;2024-01-27T00:08:09;15.10;;;4.30;;
37535;SDS011;23379;51.554;6.736;2024-01-27T00:10:34;11.45;;;3.95;;
37535;SDS011;23379;51.554;6.736;2024-01-27T00:13:00;21.83;;;4.40;;
37535;SDS011;23379;51.554;6.736;2024-01-27T00:15:25;15.38;;;4.32;;
37535;SDS011;23379;51.554;6.736;2024-01-27T00:17:50;17.73;;;4.07;;
37535;SDS011;23379;51.554;6.736;2024-01-27T00:20:16;20.58;;;4.47;;
37535;SDS011;23379;51.554;6.736;2024-01-27T00:22:41;14.00;;;4.40;;
37535;SDS011;23379;51.554;6.736;2024-01-27T00:25:06;13.40;;;3.92;;
37535;SDS011;23379;51.554;6.736;2024-01-27T00:27:32;16.92;;;4.45;;
37535;SDS011;23379;51.554;6.736;2024-01-27T00:29:57;15.75;;;4.20;;
37535;SDS011;23379;51.554;6.736;2024-01-27T00:32:23;16.25;;;4.10;;
37535;SDS011;23379;51.554;6.736;2024-01-27T00:34:48;12.57;;;3.85;;
37535;SDS011;23379;51.554;6.736;2024-01-27T00:37:13;12.82;;;4.10;;
37535;SDS011;23379;51.554;6.736;2024-01-27T00:39:39;18.92;;;4.80;;
37535;SDS011;23379;51.554;6.736;2024-01-27T00:42:05;13.65;;;4.15;;
37535;SDS011;23379;51.554;6.736;2024-01-27T00:44:30;6.18;;;3.60;;
37535;SDS011;23379;51.554;6.736;2024-01-27T00:46:56;18.02;;;4.20;;
37535;SDS011;23379;51.554;6.736;2024-01-27T00:49:21;19.88;;;4.30;;
37535;SDS011;23379;51.554;6.736;2024-01-27T00:51:46;14.13;;;4.18;;
37535;SDS011;23379;51.554;6.736;2024-01-27T00:54:12;11.82;;;4.28;;
37535;SDS011;23379;51.554;6.736;2024-01-27T00:56:37;13.77;;;4.25;;
37535;SDS011;23379;51.554;6.736;2024-01-27T00:59:02;16.90;;;4.25;;
37535;SDS011;23379;51.554;6.736;2024-01-27T01:01:28;18.20;;;4.80;;
37535;SDS011;23379;51.554;6.736;2024-01-27T01:03:53;8.20;;;4.05;;
37535;SDS011;23379;51.554;6.736;2024-01-27T01:06:18;14.43;;;4.45;;
37535;SDS011;23379;51.554;6.736;2024-01-27T01:08:44;13.38;;;4.15;;
37535;SDS011;23379;51.554;6.736;2024-01-27T01:11:09;9.88;;;3.17;;
37535;SDS011;23379;51.554;6.736;2024-01-27T01:13:35;15.50;;;4.07;;
37535;SDS011;23379;51.554;6.736;2024-01-27T01:16:00;16.23;;;3.90;;
37535;SDS011;23379;51.554;6.736;2024-01-27T01:18:26;8.85;;;3.67;;
37535;SDS011;23379;51.554;6.736;2024-01-27T01:20:51;11.40;;;4.10;;
37535;SDS011;23379;51.554;6.736;2024-01-27T01:23:16;13.93;;;4.00;;
37535;SDS011;23379;51.554;6.736;2024-01-27T01:25:42;16.05;;;4.40;;
37535;SDS011;23379;51.554;6.736;2024-01-27T01:28:07;14.55;;;3.95;;
37535;SDS011;23379;51.554;6.736;2024-01-27T01:30:33;11.68;;;3.90;;
37535;SDS011;23379;51.554;6.736;2024-01-27T01:32:58;11.93;;;4.30;;
37535;SDS011;23379;51.554;6.736;2024-01-27T01:35:23;14.20;;;4.28;;
37535;SDS011;23379;51.554;6.736;2024-01-27T01:37:49;10.48;;;4.07;;
37535;SDS011;23379;51.554;6.736;2024-01-27T01:40:15;16.63;;;4.07;;
37535;SDS011;23379;51.554;6.736;2024-01-27T01:42:41;8.25;;;4.28;;
37535;SDS011;23379;51.554;6.736;2024-01-27T01:45:06;17.73;;;4.35;;
37535;SDS011;23379;51.554;6.736;2024-01-27T01:47:33;8.35;;;4.03;;
37535;SDS011;23379;51.554;6.736;2024-01-27T01:49:59;13.60;;;3.92;;
37535;SDS011;23379;51.554;6.736;2024-01-27T01:52:24;15.35;;;4.00;;
37535;SDS011;23379;51.554;6.736;2024-01-27T01:54:50;16.17;;;3.60;;
37535;SDS011;23379;51.554;6.736;2024-01-27T01:57:15;6.70;;;3.78;;
37535;SDS011;23379;51.554;6.736;2024-01-27T01:59:41;16.60;;;4.82;;
37535;SDS011;23379;51.554;6.736;2024-01-27T02:02:10;16.80;;;4.50;;
37535;SDS011;23379;51.554;6.736;2024-01-27T02:04:42;30.42;;;4.78;;
37535;SDS011;23379;51.554;6.736;2024-01-27T02:07:08;13.80;;;4.32;;
37535;SDS011;23379;51.554;6.736;2024-01-27T02:09:34;13.65;;;4.47;;
37535;SDS011;23379;51.554;6.736;2024-01-27T02:11:59;13.35;;;4.43;;
37535;SDS011;23379;51.554;6.736;2024-01-27T02:14:25;7.68;;;3.58;;
37535;SDS011;23379;51.554;6.736;2024-01-27T02:16:52;11.15;;;4.50;;
37535;SDS011;23379;51.554;6.736;2024-01-27T02:19:18;14.77;;;4.97;;
37535;SDS011;23379;51.554;6.736;2024-01-27T02:21:43;14.32;;;4.40;;
37535;SDS011;23379;51.554;6.736;2024-01-27T02:24:08;11.60;;;4.43;;
37535;SDS011;23379;51.554;6.736;2024-01-27T02:26:35;12.65;;;4.18;;
37535;SDS011;23379;51.554;6.736;2024-01-27T02:29:00;14.23;;;4.63;;
37535;SDS011;23379;51.554;6.736;2024-01-27T02:31:26;20.67;;;5.13;;
37535;SDS011;23379;51.554;6.736;2024-01-27T02:33:51;10.73;;;4.30;;
37535;SDS011;23379;51.554;6.736;2024-01-27T02:36:17;15.20;;;4.65;;
37535;SDS011;23379;51.554;6.736;2024-01-27T02:38:42;13.13;;;4.53;;
37535;SDS011;23379;51.554;6.736;2024-01-27T02:41:09;15.05;;;5.10;;
37535;SDS011;23379;51.554;6.736;2024-01-27T02:43:34;11.32;;;4.47;;
37535;SDS011;23379;51.554;6.736;2024-01-27T02:46:00;11.27;;;4.40;;
37535;SDS011;23379;51.554;6.736;2024-01-27T02:48:25;13.90;;;4.93;;
37535;SDS011;23379;51.554;6.736;2024-01-27T02:50:50;13.93;;;4.70;;
37535;SDS011;23379;51.554;6.736;2024-01-27T02:53:16;13.05;;;4.43;;
37535;SDS011;23379;51.554;6.736;2024-01-27T02:55:41;17.00;;;5.20;;
37535;SDS011;23379;51.554;6.736;2024-01-27T02:58:06;24.70;;;4.93;;
37535;SDS011;23379;51.554;6.736;2024-01-27T03:00:31;9.82;;;4.43;;
37535;SDS011;23379;51.554;6.736;2024-01-27T03:02:57;12.73;;;4.82;;
37535;SDS011;23379;51.554;6.736;2024-01-27T03:05:23;14.88;;;4.28;;
37535;SDS011;23379;51.554;6.736;2024-01-27T03:07:49;9.75;;;4.85;;
37535;SDS011;23379;51.554;6.736;2024-01-27T03:10:14;9.00;;;4.40;;
37535;SDS011;23379;51.554;6.736;2024-01-27T03:12:40;15.80;;;4.75;;
37535;SDS011;23379;51.554;6.736;2024-01-27T03:15:05;10.40;;;4.35;;
37535;SDS011;23379;51.554;6.736;2024-01-27T03:17:30;15.35;;;5.28;;
37535;SDS011;23379;51.554;6.736;2024-01-27T03:19:56;14.35;;;4.60;;
37535;SDS011;23379;51.554;6.736;2024-01-27T03:22:21;11.45;;;4.50;;
37535;SDS011;23379;51.554;6.736;2024-01-27T03:24:46;15.68;;;5.22;;
37535;SDS011;23379;51.554;6.736;2024-01-27T03:27:12;12.80;;;4.82;;
37535;SDS011;23379;51.554;6.736;2024-01-27T03:29:37;11.40;;;4.65;;
37535;SDS011;23379;51.554;6.736;2024-01-27T03:32:02;12.25;;;4.57;;
37535;SDS011;23379;51.554;6.736;2024-01-27T03:34:28;10.23;;;4.60;;
37535;SDS011;23379;51.554;6.736;2024-01-27T03:36:53;9.82;;;4.35;;
37535;SDS011;23379;51.554;6.736;2024-01-27T03:39:19;12.05;;;5.25;;
37535;SDS011;23379;51.554;6.736;2024-01-27T03:41:44;11.20;;;5.63;;
37535;SDS011;23379;51.554;6.736;2024-01-27T03:44:09;14.68;;;5.10;;
37535;SDS011;23379;51.554;6.736;2024-01-27T03:46:35;13.18;;;4.85;;
37535;SDS011;23379;51.554;6.736;2024-01-27T03:49:01;15.52;;;5.03;;
37535;SDS011;23379;51.554;6.736;2024-01-27T03:51:26;10.50;;;4.72;;
37535;SDS011;23379;51.554;6.736;2024-01-27T03:53:51;11.52;;;4.50;;
37535;SDS011;23379;51.554;6.736;2024-01-27T03:56:17;18.15;;;4.65;;
37535;SDS011;23379;51.554;6.736;2024-01-27T03:58:42;11.00;;;4.55;;
37535;SDS011;23379;51.554;6.736;2024-01-27T04:01:07;8.85;;;4.72;;
37535;SDS011;23379;51.554;6.736;2024-01-27T04:03:33;11.68;;;5.20;;
37535;SDS011;23379;51.554;6.736;2024-01-27T04:05:58;13.52;;;5.43;;
37535;SDS011;23379;51.554;6.736;2024-01-27T04:08:24;14.02;;;5.63;;
37535;SDS011;23379;51.554;6.736;2024-01-27T04:10:49;23.33;;;5.60;;
37535;SDS011;23379;51.554;6.736;2024-01-27T04:13:15;13.77;;;5.97;;
37535;SDS011;23379;51.554;6.736;2024-01-27T04:15:40;13.90;;;5.15;;
37535;SDS011;23379;51.554;6.736;2024-01-27T04:18:06;11.00;;;5.45;;
37535;SDS011;23379;51.554;6.736;2024-01-27T04:20:33;10.43;;;5.40;;
37535;SDS011;23379;51.554;6.736;2024-01-27T04:22:58;13.98;;;6.05;;
37535;SDS011;23379;51.554;6.736;2024-01-27T04:25:24;14.88;;;5.32;;
37535;SDS011;23379;51.554;6.736;2024-01-27T04:27:49;10.73;;;5.07;;
37535;SDS011;23379;51.554;6.736;2024-01-27T04:30:15;13.30;;;5.30;;
37535;SDS011;23379;51.554;6.736;2024-01-27T04:32:40;14.52;;;5.00;;
37535;SDS011;23379;51.554;6.736;2024-01-27T04:35:09;10.00;;;5.20;;
37535;SDS011;23379;51.554;6.736;2024-01-27T04:37:35;13.85;;;5.70;;
37535;SDS011;23379;51.554;6.736;2024-01-27T04:40:00;11.43;;;5.15;;
37535;SDS011;23379;51.554;6.736;2024-01-27T04:42:25;23.92;;;5.78;;
37535;SDS011;23379;51.554;6.736;2024-01-27T04:44:51;15.25;;;5.43;;
37535;SDS011;23379;51.554;6.736;2024-01-27T04:47:17;10.77;;;4.88;;
37535;SDS011;23379;51.554;6.736;2024-01-27T04:49:42;9.75;;;4.82;;
37535;SDS011;23379;51.554;6.736;2024-01-27T04:52:07;16.60;;;4.90;;
37535;SDS011;23379;51.554;6.736;2024-01-27T04:54:33;16.35;;;5.97;;
37535;SDS011;23379;51.554;6.736;2024-01-27T04:56:58;16.10;;;5.63;;
37535;SDS011;23379;51.554;6.736;2024-01-27T04:59:23;13.05;;;5.78;;
37535;SDS011;23379;51.554;6.736;2024-01-27T05:01:49;9.23;;;5.30;;
37535;SDS011;23379;51.554;6.736;2024-01-27T05:04:15;11.57;;;5.75;;
37535;SDS011;23379;51.554;6.736;2024-01-27T05:06:44;17.88;;;5.60;;
37535;SDS011;23379;51.554;6.736;2024-01-27T05:11:37;26.33;;;5.20;;
37535;SDS011;23379;51.554;6.736;2024-01-27T05:14:03;15.02;;;5.72;;
37535;SDS011;23379;51.554;6.736;2024-01-27T05:16:28;12.27;;;5.05;;
37535;SDS011;23379;51.554;6.736;2024-01-27T05:18:54;11.00;;;5.78;;
37535;SDS011;23379;51.554;6.736;2024-01-27T05:21:19;15.55;;;6.88;;
37535;SDS011;23379;51.554;6.736;2024-01-27T05:23:45;19.85;;;6.38;;
37535;SDS011;23379;51.554;6.736;2024-01-27T05:26:10;20.65;;;6.82;;
37535;SDS011;23379;51.554;6.736;2024-01-27T05:28:36;17.80;;;5.57;;
37535;SDS011;23379;51.554;6.736;2024-01-27T05:31:03;18.35;;;6.82;;
37535;SDS011;23379;51.554;6.736;2024-01-27T05:33:29;19.38;;;5.85;;
37535;SDS011;23379;51.554;6.736;2024-01-27T05:35:54;10.68;;;5.78;;
37535;SDS011;23379;51.554;6.736;2024-01-27T05:38:20;17.55;;;6.35;;
37535;SDS011;23379;51.554;6.736;2024-01-27T05:40:45;17.38;;;6.65;;
37535;SDS011;23379;51.554;6.736;2024-01-27T05:43:10;14.68;;;6.30;;
37535;SDS011;23379;51.554;6.736;2024-01-27T05:45:36;19.48;;;6.38;;
37535;SDS011;23379;51.554;6.736;2024-01-27T05:48:01;15.63;;;6.28;;
37535;SDS011;23379;51.554;6.736;2024-01-27T05:50:27;12.88;;;5.90;;
37535;SDS011;23379;51.554;6.736;2024-01-27T05:52:52;13.13;;;5.90;;
37535;SDS011;23379;51.554;6.736;2024-01-27T05:55:18;11.32;;;5.55;;
37535;SDS011;23379;51.554;6.736;2024-01-27T05:57:43;18.27;;;6.75;;
37535;SDS011;23379;51.554;6.736;2024-01-27T06:00:09;14.23;;;6.60;;
37535;SDS011;23379;51.554;6.736;2024-01-27T06:02:35;13.80;;;6.57;;
37535;SDS011;23379;51.554;6.736;2024-01-27T06:05:01;24.05;;;6.75;;
37535;SDS011;23379;51.554;6.736;2024-01-27T06:07:27;18.75;;;6.72;;
37535;SDS011;23379;51.554;6.736;2024-01-27T06:09:52;17.58;;;6.82;;
37535;SDS011;23379;51.554;6.736;2024-01-27T06:12:17;10.32;;;5.68;;
37535;SDS011;23379;51.554;6.736;2024-01-27T06:14:44;17.45;;;6.97;;
37535;SDS011;23379;51.554;6.736;2024-01-27T06:17:09;19.73;;;6.57;;
37535;SDS011;23379;51.554;6.736;2024-01-27T06:19:34;16.33;;;6.70;;
37535;SDS011;23379;51.554;6.736;2024-01-27T06:22:00;12.93;;;6.07;;
37535;SDS011;23379;51.554;6.736;2024-01-27T06:24:25;10.70;;;6.00;;
37535;SDS011;23379;51.554;6.736;2024-01-27T06:26:50;12.25;;;6.13;;
37535;SDS011;23379;51.554;6.736;2024-01-27T06:29:16;29.65;;;7.80;;
37535;SDS011;23379;51.554;6.736;2024-01-27T06:31:41;17.67;;;7.00;;
37535;SDS011;23379;51.554;6.736;2024-01-27T06:34:06;17.13;;;6.82;;
37535;SDS011;23379;51.554;6.736;2024-01-27T06:36:32;14.93;;;6.82;;
37535;SDS011;23379;51.554;6.736;2024-01-27T06:38:57;16.38;;;6.88;;
37535;SDS011;23379;51.554;6.736;2024-01-27T06:41:23;15.45;;;6.53;;
37535;SDS011;23379;51.554;6.736;2024-01-27T06:43:49;19.23;;;6.43;;
37535;SDS011;23379;51.554;6.736;2024-01-27T06:46:14;20.17;;;6.78;;
37535;SDS011;23379;51.554;6.736;2024-01-27T06:48:40;24.58;;;7.72;;
37535;SDS011;23379;51.554;6.736;2024-01-27T06:51:05;16.90;;;7.07;;
37535;SDS011;23379;51.554;6.736;2024-01-27T06:53:31;27.55;;;7.97;;
37535;SDS011;23379;51.554;6.736;2024-01-27T06:55:56;28.88;;;7.57;;
37535;SDS011;23379;51.554;6.736;2024-01-27T06:58:21;18.02;;;7.45;;
37535;SDS011;23379;51.554;6.736;2024-01-27T07:00:47;29.08;;;8.15;;
37535;SDS011;23379;51.554;6.736;2024-01-27T07:03:12;28.65;;;8.30;;
37535;SDS011;23379;51.554;6.736;2024-01-27T07:05:37;22.90;;;8.07;;
37535;SDS011;23379;51.554;6.736;2024-01-27T07:08:08;16.73;;;6.85;;
37535;SDS011;23379;51.554;6.736;2024-01-27T07:10:34;24.38;;;8.30;;
37535;SDS011;23379;51.554;6.736;2024-01-27T07:13:00;20.33;;;7.10;;
37535;SDS011;23379;51.554;6.736;2024-01-27T07:15:25;19.15;;;7.90;;
37535;SDS011;23379;51.554;6.736;2024-01-27T07:17:52;22.92;;;8.57;;
37535;SDS011;23379;51.554;6.736;2024-01-27T07:20:18;25.17;;;9.90;;
37535;SDS011;23379;51.554;6.736;2024-01-27T07:22:44;19.00;;;10.32;;
37535;SDS011;23379;51.554;6.736;2024-01-27T07:25:09;36.47;;;11.57;;
37535;SDS011;23379;51.554;6.736;2024-01-27T07:27:35;21.95;;;10.60;;
37535;SDS011;23379;51.554;6.736;2024-01-27T07:30:01;27.02;;;12.35;;
37535;SDS011;23379;51.554;6.736;2024-01-27T07:32:27;26.17;;;11.57;;
37535;SDS011;23379;51.554;6.736;2024-01-27T07:34:52;30.30;;;12.30;;
37535;SDS011;23379;51.554;6.736;2024-01-27T07:37:18;27.77;;;11.82;;
37535;SDS011;23379;51.554;6.736;2024-01-27T07:39:43;29.58;;;12.07;;
37535;SDS011;23379;51.554;6.736;2024-01-27T07:42:09;30.15;;;12.07;;
37535;SDS011;23379;51.554;6.736;2024-01-27T07:44:35;34.55;;;12.55;;
37535;SDS011;23379;51.554;6.736;2024-01-27T07:47:00;27.65;;;11.63;;
37535;SDS011;23379;51.554;6.736;2024-01-27T07:49:25;41.13;;;12.63;;
37535;SDS011;23379;51.554;6.736;2024-01-27T07:51:51;35.45;;;12.57;;
37535;SDS011;23379;51.554;6.736;2024-01-27T07:54:16;32.95;;;11.32;;
37535;SDS011;23379;51.554;6.736;2024-01-27T07:56:41;29.95;;;12.07;;
37535;SDS011;23379;51.554;6.736;2024-01-27T07:59:07;36.13;;;12.02;;
37535;SDS011;23379;51.554;6.736;2024-01-27T08:01:38;33.92;;;10.90;;
37535;SDS011;23379;51.554;6.736;2024-01-27T08:04:07;30.90;;;11.32;;
37535;SDS011;23379;51.554;6.736;2024-01-27T08:06:33;38.47;;;13.20;;
37535;SDS011;23379;51.554;6.736;2024-01-27T08:08:58;38.60;;;12.68;;
37535;SDS011;23379;51.554;6.736;2024-01-27T08:11:24;35.85;;;13.55;;
37535;SDS011;23379;51.554;6.736;2024-01-27T08:13:49;26.52;;;12.95;;
37535;SDS011;23379;51.554;6.736;2024-01-27T08:16:15;31.75;;;11.98;;
37535;SDS011;23379;51.554;6.736;2024-01-27T08:18:40;32.03;;;11.60;;
37535;SDS011;23379;51.554;6.736;2024-01-27T08:21:10;26.15;;;11.98;;
37535;SDS011;23379;51.554;6.736;2024-01-27T08:23:36;29.33;;;9.68;;
37535;SDS011;23379;51.554;6.736;2024-01-27T08:26:02;26.92;;;10.07;;
37535;SDS011;23379;51.554;6.736;2024-01-27T08:28:28;26.73;;;10.38;;
37535;SDS011;23379;51.554;6.736;2024-01-27T08:30:53;26.25;;;9.43;;
37535;SDS011;23379;51.554;6.736;2024-01-27T08:33:22;19.63;;;8.30;;
37535;SDS011;23379;51.554;6.736;2024-01-27T08:35:47;25.10;;;8.57;;
37535;SDS011;23379;51.554;6.736;2024-01-27T08:38:18;27.20;;;8.43;;
37535;SDS011;23379;51.554;6.736;2024-01-27T08:40:44;15.13;;;6.53;;
37535;SDS011;23379;51.554;6.736;2024-01-27T08:43:09;13.90;;;6.70;;
37535;SDS011;23379;51.554;6.736;2024-01-27T08:45:40;14.27;;;6.68;;
37535;SDS011;23379;51.554;6.736;2024-01-27T08:48:06;22.60;;;7.68;;
37535;SDS011;23379;51.554;6.736;2024-01-27T08:50:32;16.08;;;6.15;;
37535;SDS011;23379;51.554;6.736;2024-01-27T08:55:48;20.73;;;6.35;;
37535;SDS011;23379;51.554;6.736;2024-01-27T08:58:14;20.17;;;6.30;;
37535;SDS011;23379;51.554;6.736;2024-01-27T09:00:39;18.05;;;5.93;;
37535;SDS011;23379;51.554;6.736;2024-01-27T09:03:05;17.70;;;5.68;;
37535;SDS011;23379;51.554;6.736;2024-01-27T09:05:30;23.30;;;6.43;;
37535;SDS011;23379;51.554;6.736;2024-01-27T09:07:56;16.30;;;5.63;;
37535;SDS011;23379;51.554;6.736;2024-01-27T09:10:24;14.18;;;5.43;;
37535;SDS011;23379;51.554;6.736;2024-01-27T09:12:49;17.80;;;5.97;;
37535;SDS011;23379;51.554;6.736;2024-01-27T09:15:15;12.88;;;5.15;;
37535;SDS011;23379;51.554;6.736;2024-01-27T09:17:43;21.58;;;6.32;;
37535;SDS011;23379;51.554;6.736;2024-01-27T09:20:09;18.45;;;5.60;;
37535;SDS011;23379;51.554;6.736;2024-01-27T09:22:37;17.35;;;6.22;;
37535;SDS011;23379;51.554;6.736;2024-01-27T09:25:03;14.43;;;5.65;;
37535;SDS011;23379;51.554;6.736;2024-01-27T09:27:31;17.27;;;5.80;;
37535;SDS011;23379;51.554;6.736;2024-01-27T09:30:00;19.92;;;6.10;;
37535;SDS011;23379;51.554;6.736;2024-01-27T09:32:25;16.90;;;5.22;;
37535;SDS011;23379;51.554;6.736;2024-01-27T09:34:54;17.05;;;5.82;;
37535;SDS011;23379;51.554;6.736;2024-01-27T09:37:19;16.90;;;5.53;;
37535;SDS011;23379;51.554;6.736;2024-01-27T09:39:44;16.65;;;6.47;;
37535;SDS011;23379;51.554;6.736;2024-01-27T09:42:13;22.42;;;6.40;;
37535;SDS011;23379;51.554;6.736;2024-01-27T09:44:42;21.65;;;6.35;;
37535;SDS011;23379;51.554;6.736;2024-01-27T09:47:13;16.10;;;5.60;;
37535;SDS011;23379;51.554;6.736;2024-01-27T09:49:41;22.50;;;6.05;;
37535;SDS011;23379;51.554;6.736;2024-01-27T09:52:07;17.42;;;5.93;;
37535;SDS011;23379;51.554;6.736;2024-01-27T09:54:33;17.65;;;5.90;;
37535;SDS011;23379;51.554;6.736;2024-01-27T09:57:00;20.00;;;6.38;;
37535;SDS011;23379;51.554;6.736;2024-01-27T09:59:26;12.52;;;5.43;;
37535;SDS011;23379;51.554;6.736;2024-01-27T10:01:56;14.68;;;5.68;;
37535;SDS011;23379;51.554;6.736;2024-01-27T10:04:26;15.95;;;5.90;;
37535;SDS011;23379;51.554;6.736;2024-01-27T10:06:53;18.58;;;6.50;;
37535;SDS011;23379;51.554;6.736;2024-01-27T10:09:18;17.55;;;6.43;;
37535;SDS011;23379;51.554;6.736;2024-01-27T10:11:47;20.20;;;5.80;;
37535;SDS011;23379;51.554;6.736;2024-01-27T10:14:13;14.73;;;4.93;;
37535;SDS011;23379;51.554;6.736;2024-01-27T10:16:42;23.63;;;5.50;;
37535;SDS011;23379;51.554;6.736;2024-01-27T10:19:14;15.38;;;5.22;;
37535;SDS011;23379;51.554;6.736;2024-01-27T10:21:59;17.75;;;5.40;;
37535;SDS011;23379;51.554;6.736;2024-01-27T10:24:25;18.67;;;5.68;;
37535;SDS011;23379;51.554;6.736;2024-01-27T10:26:50;13.95;;;5.28;;
37535;SDS011;23379;51.554;6.736;2024-01-27T10:29:16;17.95;;;5.72;;
37535;SDS011;23379;51.554;6.736;2024-01-27T10:31:41;18.30;;;5.22;;
37535;SDS011;23379;51.554;6.736;2024-01-27T10:34:07;14.13;;;4.70;;
37535;SDS011;23379;51.554;6.736;2024-01-27T10:36:40;19.33;;;5.47;;
37535;SDS011;23379;51.554;6.736;2024-01-27T10:39:28;15.68;;;5.18;;
37535;SDS011;23379;51.554;6.736;2024-01-27T10:41:53;12.60;;;4.95;;
37535;SDS011;23379;51.554;6.736;2024-01-27T10:44:19;17.63;;;5.45;;
37535;SDS011;23379;51.554;6.736;2024-01-27T10:46:46;19.20;;;5.57;;
37535;SDS011;23379;51.554;6.736;2024-01-27T10:49:13;21.65;;;5.82;;
37535;SDS011;23379;51.554;6.736;2024-01-27T10:51:43;18.55;;;5.70;;
37535;SDS011;23379;51.554;6.736;2024-01-27T10:54:12;16.07;;;6.17;;
37535;SDS011;23379;51.554;6.736;2024-01-27T10:56:39;19.13;;;5.45;;
37535;SDS011;23379;51.554;6.736;2024-01-27T10:59:06;11.88;;;4.72;;
37535;SDS011;23379;51.554;6.736;2024-01-27T11:01:33;16.20;;;5.78;;
37535;SDS011;23379;51.554;6.736;2024-01-27T11:04:02;20.25;;;5.75;;
37535;SDS011;23379;51.554;6.736;2024-01-27T11:06:34;14.82;;;5.15;;
37535;SDS011;23379;51.554;6.736;2024-01-27T11:09:04;15.35;;;4.93;;
37535;SDS011;23379;51.554;6.736;2024-01-27T11:11:31;17.88;;;4.80;;
37535;SDS011;23379;51.554;6.736;2024-01-27T11:13:57;14.77;;;5.15;;
37535;SDS011;23379;51.554;6.736;2024-01-27T11:16:23;17.90;;;5.70;;
37535;SDS011;23379;51.554;6.736;2024-01-27T11:18:49;15.45;;;4.82;;
37535;SDS011;23379;51.554;6.736;2024-01-27T11:21:15;15.43;;;4.32;;
37535;SDS011;23379;51.554;6.736;2024-01-27T11:23:41;15.27;;;4.90;;
37535;SDS011;23379;51.554;6.736;2024-01-27T11:26:07;14.18;;;4.90;;
37535;SDS011;23379;51.554;6.736;2024-01-27T11:28:33;15.57;;;4.78;;
37535;SDS011;23379;51.554;6.736;2024-01-27T11:31:04;19.92;;;5.43;;
37535;SDS011;23379;51.554;6.736;2024-01-27T11:33:30;13.63;;;4.57;;
37535;SDS011;23379;51.554;6.736;2024-01-27T11:36:02;15.43;;;4.90;;
37535;SDS011;23379;51.554;6.736;2024-01-27T11:38:30;24.58;;;5.15;;
37535;SDS011;23379;51.554;6.736;2024-01-27T11:40:56;15.13;;;4.05;;
37535;SDS011;23379;51.554;6.736;2024-01-27T11:43:21;16.50;;;4.90;;
37535;SDS011;23379;51.554;6.736;2024-01-27T11:48:21;14.88;;;4.10;;
37535;SDS011;23379;51.554;6.736;2024-01-27T11:50:47;12.07;;;4.18;;
37535;SDS011;23379;51.554;6.736;2024-01-27T11:53:12;15.48;;;4.32;;
37535;SDS011;23379;51.554;6.736;2024-01-27T11:55:38;17.45;;;4.50;;
37535;SDS011;23379;51.554;6.736;2024-01-27T11:58:03;12.68;;;4.10;;
37535;SDS011;23379;51.554;6.736;2024-01-27T12:00:30;14.30;;;4.28;;
37535;SDS011;23379;51.554;6.736;2024-01-27T12:02:55;11.93;;;3.88;;
37535;SDS011;23379;51.554;6.736;2024-01-27T12:05:21;16.92;;;3.92;;
37535;SDS011;23379;51.554;6.736;2024-01-27T12:07:46;13.93;;;4.20;;
37535;SDS011;23379;51.554;6.736;2024-01-27T12:10:11;14.07;;;3.88;;
37535;SDS011;23379;51.554;6.736;2024-01-27T12:12:37;12.70;;;3.80;;
37535;SDS011;23379;51.554;6.736;2024-01-27T12:15:02;13.77;;;3.90;;
37535;SDS011;23379;51.554;6.736;2024-01-27T12:17:28;13.60;;;3.92;;
37535;SDS011;23379;51.554;6.736;2024-01-27T12:19:54;18.25;;;4.15;;
37535;SDS011;23379;51.554;6.736;2024-01-27T12:22:23;13.73;;;3.88;;
37535;SDS011;23379;51.554;6.736;2024-01-27T12:25:07;26.38;;;12.05;;
37535;SDS011;23379;51.554;6.736;2024-01-27T12:27:34;15.60;;;5.20;;
37535;SDS011;23379;51.554;6.736;2024-01-27T12:30:00;11.45;;;3.58;;
37535;SDS011;23379;51.554;6.736;2024-01-27T12:32:26;14.23;;;3.90;;
37535;SDS011;23379;51.554;6.736;2024-01-27T12:34:52;13.45;;;3.63;;
37535;SDS011;23379;51.554;6.736;2024-01-27T12:37:17;15.57;;;3.90;;
37535;SDS011;23379;51.554;6.736;2024-01-27T12:39:43;14.13;;;3.55;;
37535;SDS011;23379;51.554;6.736;2024-01-27T12:42:09;11.80;;;3.30;;
37535;SDS011;23379;51.554;6.736;2024-01-27T12:44:35;14.80;;;3.63;;
37535;SDS011;23379;51.554;6.736;2024-01-27T12:47:01;12.07;;;3.58;;
37535;SDS011;23379;51.554;6.736;2024-01-27T12:49:26;13.80;;;3.70;;
37535;SDS011;23379;51.554;6.736;2024-01-27T12:51:52;13.82;;;3.40;;
37535;SDS011;23379;51.554;6.736;2024-01-27T12:54:17;14.32;;;3.83;;
37535;SDS011;23379;51.554;6.736;2024-01-27T12:56:43;11.93;;;3.58;;
37535;SDS011;23379;51.554;6.736;2024-01-27T12:59:08;13.70;;;3.45;;
37535;SDS011;23379;51.554;6.736;2024-01-27T13:01:34;13.18;;;3.33;;
37535;SDS011;23379;51.554;6.736;2024-01-27T13:03:59;12.68;;;3.50;;
37535;SDS011;23379;51.554;6.736;2024-01-27T13:06:25;11.40;;;3.08;;
37535;SDS011;23379;51.554;6.736;2024-01-27T13:08:51;12.23;;;3.20;;
37535;SDS011;23379;51.554;6.736;2024-01-27T13:11:17;11.00;;;3.40;;
37535;SDS011;23379;51.554;6.736;2024-01-27T13:13:42;11.15;;;3.38;;
37535;SDS011;23379;51.554;6.736;2024-01-27T13:16:07;19.27;;;3.40;;
37535;SDS011;23379;51.554;6.736;2024-01-27T13:18:34;16.23;;;3.35;;
37535;SDS011;23379;51.554;6.736;2024-01-27T13:20:59;14.32;;;2.97;;
37535;SDS011;23379;51.554;6.736;2024-01-27T13:23:25;9.10;;;3.25;;
37535;SDS011;23379;51.554;6.736;2024-01-27T13:25:50;12.43;;;3.40;;
37535;SDS011;23379;51.554;6.736;2024-01-27T13:28:15;14.77;;;3.70;;
37535;SDS011;23379;51.554;6.736;2024-01-27T13:30:41;9.38;;;2.67;;
37535;SDS011;23379;51.554;6.736;2024-01-27T13:33:07;9.75;;;2.95;;
37535;SDS011;23379;51.554;6.736;2024-01-27T13:35:32;12.93;;;3.40;;
37535;SDS011;23379;51.554;6.736;2024-01-27T13:37:57;13.80;;;2.83;;
37535;SDS011;23379;51.554;6.736;2024-01-27T13:40:23;10.50;;;2.78;;
37535;SDS011;23379;51.554;6.736;2024-01-27T13:42:48;12.77;;;3.70;;
37535;SDS011;23379;51.554;6.736;2024-01-27T13:45:13;8.20;;;3.03;;
37535;SDS011;23379;51.554;6.736;2024-01-27T13:47:39;12.25;;;3.20;;
37535;SDS011;23379;51.554;6.736;2024-01-27T13:50:04;9.40;;;3.13;;
37535;SDS011;23379;51.554;6.736;2024-01-27T13:52:31;9.45;;;2.97;;
37535;SDS011;23379;51.554;6.736;2024-01-27T13:54:57;15.57;;;3.55;;
37535;SDS011;23379;51.554;6.736;2024-01-27T13:57:22;13.43;;;3.10;;
37535;SDS011;23379;51.554;6.736;2024-01-27T13:59:48;8.13;;;2.92;;
37535;SDS011;23379;51.554;6.736;2024-01-27T14:02:13;9.77;;;2.85;;
37535;SDS011;23379;51.554;6.736;2024-01-27T14:04:38;9.70;;;2.88;;
37535;SDS011;23379;51.554;6.736;2024-01-27T14:07:05;10.77;;;3.13;;
37535;SDS011;23379;51.554;6.736;2024-01-27T14:09:33;9.05;;;3.20;;
37535;SDS011;23379;51.554;6.736;2024-01-27T14:11:58;9.90;;;3.22;;
37535;SDS011;23379;51.554;6.736;2024-01-27T14:14:23;8.80;;;2.83;;
37535;SDS011;23379;51.554;6.736;2024-01-27T14:16:49;12.45;;;3.28;;
37535;SDS011;23379;51.554;6.736;2024-01-27T14:19:14;13.35;;;2.78;;
37535;SDS011;23379;51.554;6.736;2024-01-27T14:21:39;10.50;;;3.10;;
37535;SDS011;23379;51.554;6.736;2024-01-27T14:24:06;10.60;;;3.13;;
37535;SDS011;23379;51.554;6.736;2024-01-27T14:26:33;13.93;;;3.85;;
37535;SDS011;23379;51.554;6.736;2024-01-27T14:28:58;11.68;;;2.92;;
37535;SDS011;23379;51.554;6.736;2024-01-27T14:31:24;10.43;;;2.92;;
37535;SDS011;23379;51.554;6.736;2024-01-27T14:33:49;9.98;;;3.20;;